Gaz Palmyra — 3FCO4 — position and weather

sailwx.info

Track history (hours):
 
Tides and Currents Weather Stations Pressure Air Temp Water Temp Dewpoint Dewpoint Depression Visibility Wind Speed Wind Dir Waves Ship Positions

Gaz Palmyra

Last reported at 2016-Jul-27 07:10 UTC. Time now 2016-Jul-29 07:56 UTC.
Position N 36°46' E 003°05'.

Length 137 m; draft 7.6 m.

Type: Ship (hazmat cat C). MMSI: 353247000.

Date/timePositionNaut miles runAvg speedWind from/ knotsBaromVisibWave heightAir tempDewpointWater temp
2016-Jul-27 07:10N 36°46' E 003°05'1 1.5
2016-Jul-27 06:33N 36°46' E 003°06'1 1.3
2016-Jul-27 05:33N 36°46' E 003°07'0 0.0
2016-Jul-27 04:30N 36°46' E 003°07'0 0.0
2016-Jul-27 03:33N 36°46' E 003°07'0 0.0
2016-Jul-26 17:33N 36°46' E 003°07'0 0.0
2016-Jul-26 16:21N 36°46' E 003°07'0 0.1
2016-Jul-26 15:33N 36°46' E 003°07'0 0.0
2016-Jul-25 09:15N 36°46' E 003°07'0 0.0
2016-Jul-25 08:33N 36°46' E 003°07'0 0.0
2016-Jul-25 07:24N 36°46' E 003°07'0 0.0
2016-Jul-25 06:27N 36°46' E 003°07'0 0.0
2016-Jul-25 04:21N 36°46' E 003°07'0 0.0
2016-Jul-25 03:15N 36°46' E 003°07'0 0.0
2016-Jul-25 00:30N 36°46' E 003°07'48 1.0
2016-Jul-22 23:33N 36°49' E 002°07'10 9.6
2016-Jul-22 22:33N 36°49' E 001°55'10 9.7
2016-Jul-22 21:33N 36°48' E 001°43'10 9.6
2016-Jul-22 20:33N 36°47' E 001°31'1010.1
2016-Jul-22 19:33N 36°46' E 001°19'1110.3
2016-Jul-22 18:30N 36°46' E 001°05'2010.1
2016-Jul-22 16:31N 36°37' E 000°43'1110.3
2016-Jul-22 15:26N 36°31' E 000°31'3210.9
2016-Jul-22 12:32N 36°08' E 000°04'1010.4
2016-Jul-22 11:33N 35°60' W 000°04'1110.7
2016-Jul-22 10:33N 35°53' W 000°14'4 0.2
2016-Jul-21 09:28N 35°51' W 000°18'2 1.9
2016-Jul-21 08:32N 35°51' W 000°16'12 1.4
2016-Jul-21 00:33N 36°03' W 000°14'0 0.4
2016-Jul-20 23:33N 36°03' W 000°14'0 0.2
2016-Jul-20 22:33N 36°03' W 000°14'1 1.2
2016-Jul-20 21:33N 36°03' W 000°13'2 1.2
2016-Jul-20 19:33N 36°02' W 000°10'1 1.2
2016-Jul-20 18:33N 36°03' W 000°08'1 1.1
2016-Jul-20 17:33N 36°03' W 000°07'7 7.4
2016-Jul-20 16:33N 36°01' W 000°16'8 7.7
2016-Jul-20 15:33N 35°58' W 000°25'1 0.7
2016-Jul-20 14:31N 35°58' W 000°24'2 1.4
2016-Jul-20 13:11N 35°58' W 000°22'1 1.6
2016-Jul-20 12:33N 35°58' W 000°20'2 1.4
2016-Jul-20 11:23N 35°59' W 000°19'1 1.3
2016-Jul-20 10:32N 35°60' W 000°17'1 1.0
2016-Jul-20 09:32N 36°00' W 000°17'1 0.8
2016-Jul-20 08:33N 36°01' W 000°16'1 0.7
2016-Jul-20 07:11N 36°01' W 000°15'0 0.5
2016-Jul-20 06:34N 36°01' W 000°14'1 0.6
2016-Jul-20 05:33N 36°01' W 000°14'3 3.2
2016-Jul-20 04:32N 36°03' W 000°10'1110.7
2016-Jul-20 03:32N 36°06' E 000°02'1010.5
2016-Jul-20 02:33N 36°13' E 000°11'1010.4
2016-Jul-20 01:33N 36°21' E 000°20'1010.0
2016-Jul-20 00:33N 36°29' E 000°28'1110.4
2016-Jul-19 23:31N 36°35' E 000°39'1010.5
2016-Jul-19 22:33N 36°40' E 000°50'1110.5
2016-Jul-19 21:33N 36°45' E 001°01'1110.8
2016-Jul-19 20:33N 36°46' E 001°15'1010.5
2016-Jul-19 19:33N 36°47' E 001°28'1111.0
2016-Jul-19 18:33N 36°48' E 001°41'1110.9
2016-Jul-19 17:33N 36°49' E 001°55'1110.9
2016-Jul-19 16:33N 36°49' E 002°09'1110.8
2016-Jul-19 15:33N 36°50' E 002°22'1110.5
2016-Jul-19 14:33N 36°51' E 002°35'1010.3
2016-Jul-19 13:33N 36°52' E 002°48'1010.1
2016-Jul-19 12:33N 36°53' E 003°01'8 7.8
2016-Jul-19 11:33N 36°46' E 003°05'  
Track history (hours):
 
Tides and Currents Weather Stations Pressure Air Temp Water Temp Dewpoint Dewpoint Depression Visibility Wind Speed Wind Dir Waves Ship Positions

Gaz Palmyra

Last reported at 2016-Jul-27 07:10 UTC. Time now 2016-Jul-29 07:56 UTC.
Position N 36°46' E 003°05'.

Length 137 m; draft 7.6 m.

Type: Ship (hazmat cat C). MMSI: 353247000.

Date/timePositionNaut miles runAvg speedWind from/ knotsBaromVisibWave heightAir tempDewpointWater temp
2016-Jul-27 07:10N 36°46' E 003°05'1 1.5
2016-Jul-27 06:33N 36°46' E 003°06'1 1.3
2016-Jul-27 05:33N 36°46' E 003°07'0 0.0
2016-Jul-27 04:30N 36°46' E 003°07'0 0.0
2016-Jul-27 03:33N 36°46' E 003°07'0 0.0
2016-Jul-26 17:33N 36°46' E 003°07'0 0.0
2016-Jul-26 16:21N 36°46' E 003°07'0 0.1
2016-Jul-26 15:33N 36°46' E 003°07'0 0.0
2016-Jul-25 09:15N 36°46' E 003°07'0 0.0
2016-Jul-25 08:33N 36°46' E 003°07'0 0.0
2016-Jul-25 07:24N 36°46' E 003°07'0 0.0
2016-Jul-25 06:27N 36°46' E 003°07'0 0.0
2016-Jul-25 04:21N 36°46' E 003°07'0 0.0
2016-Jul-25 03:15N 36°46' E 003°07'0 0.0
2016-Jul-25 00:30N 36°46' E 003°07'48 1.0
2016-Jul-22 23:33N 36°49' E 002°07'10 9.6
2016-Jul-22 22:33N 36°49' E 001°55'10 9.7
2016-Jul-22 21:33N 36°48' E 001°43'10 9.6
2016-Jul-22 20:33N 36°47' E 001°31'1010.1
2016-Jul-22 19:33N 36°46' E 001°19'1110.3
2016-Jul-22 18:30N 36°46' E 001°05'2010.1
2016-Jul-22 16:31N 36°37' E 000°43'1110.3
2016-Jul-22 15:26N 36°31' E 000°31'3210.9
2016-Jul-22 12:32N 36°08' E 000°04'1010.4
2016-Jul-22 11:33N 35°60' W 000°04'1110.7
2016-Jul-22 10:33N 35°53' W 000°14'4 0.2
2016-Jul-21 09:28N 35°51' W 000°18'2 1.9
2016-Jul-21 08:32N 35°51' W 000°16'12 1.4
2016-Jul-21 00:33N 36°03' W 000°14'0 0.4
2016-Jul-20 23:33N 36°03' W 000°14'0 0.2
2016-Jul-20 22:33N 36°03' W 000°14'1 1.2
2016-Jul-20 21:33N 36°03' W 000°13'2 1.2
2016-Jul-20 19:33N 36°02' W 000°10'1 1.2
2016-Jul-20 18:33N 36°03' W 000°08'1 1.1
2016-Jul-20 17:33N 36°03' W 000°07'7 7.4
2016-Jul-20 16:33N 36°01' W 000°16'8 7.7
2016-Jul-20 15:33N 35°58' W 000°25'1 0.7
2016-Jul-20 14:31N 35°58' W 000°24'2 1.4
2016-Jul-20 13:11N 35°58' W 000°22'1 1.6
2016-Jul-20 12:33N 35°58' W 000°20'2 1.4
2016-Jul-20 11:23N 35°59' W 000°19'1 1.3
2016-Jul-20 10:32N 35°60' W 000°17'1 1.0
2016-Jul-20 09:32N 36°00' W 000°17'1 0.8
2016-Jul-20 08:33N 36°01' W 000°16'1 0.7
2016-Jul-20 07:11N 36°01' W 000°15'0 0.5
2016-Jul-20 06:34N 36°01' W 000°14'1 0.6
2016-Jul-20 05:33N 36°01' W 000°14'3 3.2
2016-Jul-20 04:32N 36°03' W 000°10'1110.7
2016-Jul-20 03:32N 36°06' E 000°02'1010.5
2016-Jul-20 02:33N 36°13' E 000°11'1010.4
2016-Jul-20 01:33N 36°21' E 000°20'1010.0
2016-Jul-20 00:33N 36°29' E 000°28'1110.4
2016-Jul-19 23:31N 36°35' E 000°39'1010.5
2016-Jul-19 22:33N 36°40' E 000°50'1110.5
2016-Jul-19 21:33N 36°45' E 001°01'1110.8
2016-Jul-19 20:33N 36°46' E 001°15'1010.5
2016-Jul-19 19:33N 36°47' E 001°28'1111.0
2016-Jul-19 18:33N 36°48' E 001°41'1110.9
2016-Jul-19 17:33N 36°49' E 001°55'1110.9
2016-Jul-19 16:33N 36°49' E 002°09'1110.8
2016-Jul-19 15:33N 36°50' E 002°22'1110.5
2016-Jul-19 14:33N 36°51' E 002°35'1010.3
2016-Jul-19 13:33N 36°52' E 002°48'1010.1
2016-Jul-19 12:33N 36°53' E 003°01'8 7.8
2016-Jul-19 11:33N 36°46' E 003°05'  

Dump ship's entire track history